createdAt,value
2022-08-05T00:00:26.121Z,22.17
2022-08-05T00:02:57.294Z,22.06
2022-08-05T00:06:04.737Z,22.00
2022-08-05T00:08:34.148Z,22.00
2022-08-05T00:11:20.255Z,21.93
2022-08-05T00:13:53.343Z,21.86
2022-08-05T00:16:36.139Z,21.88
2022-08-05T00:19:08.169Z,21.86
2022-08-05T00:21:45.364Z,21.90
2022-08-05T00:24:19.031Z,21.85
2022-08-05T00:26:54.325Z,21.77
2022-08-05T00:29:25.792Z,21.82
2022-08-05T00:32:12.596Z,21.90
2022-08-05T00:35:05.245Z,21.77
2022-08-05T00:37:53.567Z,21.58
2022-08-05T00:40:28.154Z,21.60
2022-08-05T00:43:00.050Z,21.47
2022-08-05T00:45:38.931Z,21.45
2022-08-05T00:48:16.429Z,21.41
2022-08-05T00:50:50.087Z,21.35
2022-08-05T00:54:01.084Z,21.38
2022-08-05T00:56:12.642Z,21.34
2022-08-05T00:58:46.900Z,21.28
2022-08-05T01:01:48.059Z,21.16
2022-08-05T01:04:20.250Z,21.13
2022-08-05T01:06:58.066Z,21.13
2022-08-05T01:09:30.511Z,21.09
2022-08-05T01:12:04.906Z,21.13
2022-08-05T01:14:54.077Z,21.15
2022-08-05T01:17:31.649Z,21.12
2022-08-05T01:20:22.407Z,21.19
2022-08-05T01:23:15.295Z,21.15
2022-08-05T01:26:28.788Z,21.08
2022-08-05T01:29:04.302Z,21.09
2022-08-05T01:31:42.639Z,21.05
2022-08-05T01:34:19.001Z,21.15
2022-08-05T01:37:01.127Z,21.10
2022-08-05T01:39:46.666Z,20.99
2022-08-05T01:42:21.467Z,21.12
2022-08-05T01:44:59.143Z,21.21
2022-08-05T01:47:39.758Z,21.22
2022-08-05T01:50:16.174Z,21.34
2022-08-05T01:52:50.259Z,21.40
2022-08-05T01:55:24.597Z,21.46
2022-08-05T01:58:12.555Z,21.51
2022-08-05T02:00:50.779Z,21.49
2022-08-05T02:03:28.900Z,21.59
2022-08-05T02:06:03.406Z,21.62
2022-08-05T02:08:54.909Z,21.53
2022-08-05T02:11:34.094Z,21.64
2022-08-05T02:14:12.321Z,21.55
2022-08-05T02:16:53.123Z,21.56
2022-08-05T02:19:34.236Z,21.74
2022-08-05T02:22:25.821Z,21.70
2022-08-05T02:25:04.168Z,21.77
2022-08-05T02:27:59.725Z,21.74
2022-08-05T02:30:37.088Z,21.69
2022-08-05T02:33:11.907Z,21.77
2022-08-05T02:35:56.231Z,21.80
2022-08-05T02:38:35.087Z,21.73
2022-08-05T02:41:17.115Z,21.27
2022-08-05T02:47:01.333Z,21.20
2022-08-05T02:49:40.633Z,21.85
2022-08-05T02:52:29.966Z,21.00
2022-08-05T02:55:05.584Z,21.45
2022-08-05T02:58:11.320Z,21.24
2022-08-05T03:00:33.012Z,21.41
2022-08-05T03:03:10.195Z,21.42
2022-08-05T03:06:57.086Z,21.38
2022-08-05T03:08:34.675Z,21.52
2022-08-05T03:11:57.059Z,21.79
2022-08-05T03:14:03.158Z,21.79
2022-08-05T03:16:33.910Z,22.26
2022-08-05T03:19:17.270Z,21.95
2022-08-05T03:21:59.223Z,22.29
2022-08-05T03:24:30.855Z,21.79
2022-08-05T03:27:19.406Z,22.29
2022-08-05T03:30:07.779Z,22.36
2022-08-05T03:32:47.588Z,22.43
2022-08-05T03:35:33.761Z,22.45
2022-08-05T03:38:33.334Z,22.40
2022-08-05T03:41:24.751Z,22.45
2022-08-05T03:44:08.634Z,22.55
2022-08-05T03:46:44.809Z,21.80
2022-08-05T03:49:16.978Z,22.77
2022-08-05T03:52:36.557Z,22.92
2022-08-05T03:55:50.444Z,22.17
2022-08-05T03:57:50.276Z,22.59
2022-08-05T04:00:26.445Z,23.30
2022-08-05T04:02:59.432Z,23.41
2022-08-05T04:05:34.482Z,23.46
2022-08-05T04:08:14.593Z,23.03
2022-08-05T04:11:00.994Z,23.17
2022-08-05T04:13:49.692Z,23.55
2022-08-05T04:16:24.338Z,23.50
2022-08-05T04:18:57.959Z,23.10
2022-08-05T04:28:11.440Z,23.75
2022-08-05T04:34:18.874Z,24.03
2022-08-05T04:37:04.449Z,24.18
2022-08-05T04:39:55.817Z,24.28
2022-08-05T04:42:43.709Z,24.33
2022-08-05T04:45:23.089Z,24.51
2022-08-05T04:48:18.690Z,24.72
2022-08-05T04:51:02.593Z,24.45
2022-08-05T04:53:35.502Z,24.84
2022-08-05T04:56:33.408Z,24.78
2022-08-05T04:58:58.090Z,24.87
2022-08-05T05:02:35.356Z,24.84
2022-08-05T05:04:26.297Z,24.91
2022-08-05T05:06:59.935Z,25.23
2022-08-05T05:09:30.922Z,25.31
2022-08-05T05:12:04.050Z,25.42
2022-08-05T05:14:36.407Z,25.99
2022-08-05T05:17:09.546Z,26.16
2022-08-05T05:19:44.353Z,25.96
2022-08-05T05:22:35.609Z,26.59
2022-08-05T05:28:20.212Z,25.93
2022-08-05T05:30:50.571Z,26.77
2022-08-05T05:33:23.487Z,27.11
2022-08-05T05:35:53.026Z,27.28
2022-08-05T05:38:26.993Z,27.42
2022-08-05T05:40:57.449Z,27.63
2022-08-05T05:43:56.873Z,27.47
2022-08-05T05:46:19.080Z,27.54
2022-08-05T05:48:53.088Z,27.72
2022-08-05T05:51:22.812Z,28.12
2022-08-05T05:53:58.969Z,28.28
2022-08-05T05:56:34.945Z,28.14
2022-08-05T05:59:06.703Z,28.13
2022-08-05T06:01:39.423Z,28.04
2022-08-05T06:04:13.248Z,28.27
2022-08-05T06:06:47.393Z,28.27
2022-08-05T06:09:25.820Z,28.17
2022-08-05T06:12:06.336Z,28.19
2022-08-05T06:14:40.260Z,28.25
2022-08-05T06:17:21.898Z,28.31
2022-08-05T06:19:56.649Z,28.28
2022-08-05T06:22:33.707Z,28.25
2022-08-05T06:25:24.360Z,28.32
2022-08-05T06:28:11.728Z,28.38
2022-08-05T06:30:42.919Z,28.29
2022-08-05T06:33:12.361Z,28.08
2022-08-05T06:36:07.449Z,28.00
2022-08-05T06:38:39.451Z,27.78
2022-08-05T06:41:16.436Z,27.58
2022-08-05T06:43:59.116Z,27.43
2022-08-05T06:46:31.460Z,27.35
2022-08-05T06:49:01.894Z,27.34
2022-08-05T06:51:36.877Z,27.29
2022-08-05T06:54:10.129Z,27.32
2022-08-05T06:56:54.693Z,27.33
2022-08-05T06:59:24.446Z,27.34
2022-08-05T07:01:53.586Z,27.33
2022-08-05T07:04:22.801Z,27.34
2022-08-05T07:06:54.078Z,27.51
2022-08-05T07:09:24.950Z,27.58
2022-08-05T07:11:55.383Z,27.52
2022-08-05T07:14:42.708Z,27.42
2022-08-05T07:18:00.459Z,27.44
2022-08-05T07:20:32.827Z,27.40
2022-08-05T07:22:54.261Z,27.35
2022-08-05T07:25:56.213Z,27.23
2022-08-05T07:28:17.443Z,27.20
2022-08-05T07:30:50.340Z,27.14
2022-08-05T07:33:37.168Z,27.13
2022-08-05T07:36:20.892Z,27.10
2022-08-05T07:38:54.732Z,27.12
2022-08-05T07:42:13.897Z,27.10
2022-08-05T07:44:19.489Z,27.12
2022-08-05T07:46:50.244Z,27.12
2022-08-05T07:49:20.404Z,27.18
2022-08-05T07:51:54.424Z,27.25
2022-08-05T07:54:31.598Z,27.31
2022-08-05T07:57:18.131Z,27.31
2022-08-05T07:59:53.883Z,27.32
2022-08-05T08:02:31.248Z,27.33
2022-08-05T08:05:17.523Z,27.36
2022-08-05T08:07:59.535Z,27.38
2022-08-05T08:10:33.393Z,27.42
2022-08-05T08:13:03.865Z,27.46
2022-08-05T08:16:33.454Z,27.43
2022-08-05T08:18:23.571Z,27.41
2022-08-05T08:21:03.232Z,27.42
2022-08-05T08:24:01.409Z,27.43
2022-08-05T08:26:26.716Z,27.51
2022-08-05T08:29:21.979Z,27.57
2022-08-05T08:31:52.686Z,27.64
2022-08-05T08:34:30.735Z,27.60
2022-08-05T08:37:05.742Z,27.60
2022-08-05T08:39:37.526Z,27.76
2022-08-05T08:42:33.706Z,27.78
2022-08-05T08:45:22.542Z,27.66
2022-08-05T08:48:12.695Z,27.76
2022-08-05T08:51:22.060Z,27.96
2022-08-05T08:53:44.334Z,27.89
2022-08-05T08:56:14.539Z,27.92
2022-08-05T08:58:47.905Z,27.95
2022-08-05T09:01:19.140Z,27.98
2022-08-05T09:03:55.712Z,28.01
2022-08-05T09:06:29.818Z,27.94
2022-08-05T09:09:01.462Z,27.96
2022-08-05T09:11:53.485Z,27.95
2022-08-05T09:14:57.764Z,28.04
2022-08-05T09:17:42.303Z,28.18
2022-08-05T09:20:05.307Z,28.23
2022-08-05T09:23:09.251Z,28.43
2022-08-05T09:26:02.156Z,28.52
2022-08-05T09:28:32.381Z,28.53
2022-08-05T09:31:22.252Z,28.62
2022-08-05T09:33:58.241Z,28.73
2022-08-05T09:36:55.158Z,28.92
2022-08-05T09:39:41.249Z,29.10
2022-08-05T09:42:23.408Z,29.23
2022-08-05T09:45:17.676Z,29.36
2022-08-05T09:47:55.813Z,29.53
2022-08-05T09:50:37.955Z,29.70
2022-08-05T09:53:22.901Z,29.61
2022-08-05T09:56:12.630Z,29.44
2022-08-05T09:58:42.848Z,29.23
2022-08-05T10:01:31.623Z,29.28
2022-08-05T10:04:09.973Z,29.43
2022-08-05T10:06:41.078Z,29.72
2022-08-05T10:09:28.262Z,29.99
2022-08-05T10:12:18.455Z,30.22
2022-08-05T10:15:20.607Z,30.53
2022-08-05T10:18:07.050Z,30.73
2022-08-05T10:20:43.162Z,30.73
2022-08-05T10:23:34.442Z,30.76
2022-08-05T10:26:07.502Z,31.00
2022-08-05T10:28:45.134Z,31.10
2022-08-05T10:32:54.429Z,31.19
2022-08-05T10:34:07.150Z,31.54
2022-08-05T10:36:41.376Z,31.53
2022-08-05T10:39:24.999Z,31.51
2022-08-05T10:42:14.647Z,31.24
2022-08-05T10:44:48.007Z,30.96
2022-08-05T10:47:26.864Z,30.37
2022-08-05T10:50:32.397Z,30.17
2022-08-05T10:53:02.892Z,30.20
2022-08-05T10:56:03.785Z,30.18
2022-08-05T10:58:23.077Z,30.14
2022-08-05T11:01:12.861Z,30.24
2022-08-05T11:04:02.925Z,30.54
2022-08-05T11:06:32.696Z,30.73
2022-08-05T11:09:31.864Z,31.08
2022-08-05T11:12:45.313Z,31.26
2022-08-05T11:16:00.235Z,31.57
2022-08-05T11:18:26.074Z,32.18
2022-08-05T11:20:56.343Z,32.38
2022-08-05T11:24:05.286Z,32.53
2022-08-05T11:26:28.771Z,32.49
2022-08-05T11:29:06.946Z,32.08
2022-08-05T11:31:54.333Z,31.60
2022-08-05T11:34:51.709Z,31.35
2022-08-05T11:38:29.106Z,30.99
2022-08-05T11:41:34.701Z,30.49
2022-08-05T11:44:05.094Z,30.35
2022-08-05T11:47:09.996Z,30.16
2022-08-05T11:49:34.323Z,30.14
2022-08-05T11:52:08.668Z,30.18
2022-08-05T11:54:41.691Z,30.04
2022-08-05T11:57:25.301Z,30.12
2022-08-05T11:59:57.677Z,30.10
2022-08-05T12:02:31.987Z,30.05
2022-08-05T12:05:07.888Z,30.09
2022-08-05T12:08:07.421Z,30.06
2022-08-05T12:10:45.339Z,30.24
2022-08-05T12:13:28.187Z,30.40
2022-08-05T12:16:14.999Z,30.60
2022-08-05T12:18:52.787Z,30.59
2022-08-05T12:21:26.983Z,30.76
2022-08-05T12:24:07.309Z,31.08
2022-08-05T12:26:39.123Z,31.29
2022-08-05T12:29:15.970Z,31.64
2022-08-05T12:31:54.213Z,31.76
2022-08-05T12:34:27.787Z,31.91
2022-08-05T12:37:10.117Z,31.96
2022-08-05T12:39:40.335Z,31.95
2022-08-05T12:42:15.286Z,32.04
2022-08-05T12:44:47.535Z,32.14
2022-08-05T12:47:30.608Z,32.44
2022-08-05T12:58:38.872Z,31.29
2022-08-05T13:02:02.289Z,31.11
2022-08-05T13:03:20.064Z,31.21
2022-08-05T13:05:52.307Z,31.13
2022-08-05T13:08:21.573Z,31.04
2022-08-05T13:11:04.104Z,30.92
2022-08-05T13:14:05.668Z,30.83
2022-08-05T13:16:29.803Z,30.73
2022-08-05T13:18:59.434Z,30.67
2022-08-05T13:21:37.582Z,30.74
2022-08-05T13:24:09.001Z,30.72
2022-08-05T13:26:38.721Z,30.65
2022-08-05T13:29:12.378Z,30.50
2022-08-05T13:32:03.826Z,30.30
2022-08-05T13:34:35.902Z,30.14
2022-08-05T13:37:07.491Z,29.92
2022-08-05T13:40:13.897Z,29.73
2022-08-05T13:42:29.959Z,29.73
2022-08-05T13:45:02.342Z,29.74
2022-08-05T13:47:35.961Z,29.60
2022-08-05T13:50:23.490Z,29.49
2022-08-05T13:52:53.814Z,29.46
2022-08-05T13:55:40.791Z,29.42
2022-08-05T13:58:11.998Z,29.44
2022-08-05T14:00:43.107Z,29.40
2022-08-05T14:03:17.241Z,29.41
2022-08-05T14:06:08.250Z,29.47
2022-08-05T14:08:34.356Z,29.52
2022-08-05T14:11:21.079Z,29.49
2022-08-05T14:13:55.042Z,29.46
2022-08-05T14:16:30.497Z,29.42
2022-08-05T14:19:04.379Z,29.44
2022-08-05T14:22:09.337Z,29.53
2022-08-05T14:24:23.365Z,29.65
2022-08-05T14:27:15.533Z,29.80
2022-08-05T14:29:41.851Z,29.98
2022-08-05T14:32:15.034Z,30.17
2022-08-05T14:34:46.542Z,30.27
2022-08-05T14:37:19.004Z,30.56
2022-08-05T14:39:50.283Z,30.66
2022-08-05T14:42:26.299Z,30.68
2022-08-05T14:44:56.726Z,30.72
2022-08-05T14:48:02.768Z,30.74
2022-08-05T14:50:19.048Z,30.89
2022-08-05T14:52:57.722Z,30.70
2022-08-05T14:55:39.377Z,30.35
2022-08-05T14:58:13.707Z,30.33
2022-08-05T15:00:59.717Z,30.17
2022-08-05T15:03:39.074Z,29.96
2022-08-05T15:06:15.391Z,29.76
2022-08-05T15:08:59.489Z,29.66
2022-08-05T15:11:52.973Z,29.53
2022-08-05T15:14:34.546Z,29.42
2022-08-05T15:17:09.865Z,29.23
2022-08-05T15:20:00.195Z,29.04
2022-08-05T15:22:29.675Z,28.89
2022-08-05T15:24:59.469Z,28.76
2022-08-05T15:27:32.043Z,28.65
2022-08-05T15:30:07.161Z,28.67
2022-08-05T15:32:36.005Z,28.74
2022-08-05T15:35:10.535Z,28.71
2022-08-05T15:38:08.547Z,28.72
2022-08-05T15:41:02.401Z,28.74
2022-08-05T15:43:21.291Z,28.66
2022-08-05T15:46:00.584Z,28.53
2022-08-05T15:48:31.389Z,28.50
2022-08-05T15:51:05.572Z,28.59
2022-08-05T15:53:38.515Z,28.62
2022-08-05T15:56:20.733Z,28.51
2022-08-05T15:58:50.226Z,28.44
2022-08-05T16:01:20.035Z,28.40
2022-08-05T16:03:50.800Z,28.61
2022-08-05T16:06:23.003Z,28.74
2022-08-05T16:08:53.781Z,28.86
2022-08-05T16:11:40.117Z,28.91
2022-08-05T16:14:17.140Z,28.96
2022-08-05T16:16:47.799Z,29.02
2022-08-05T16:19:25.499Z,28.88
2022-08-05T16:22:10.702Z,28.72
2022-08-05T16:24:52.190Z,28.70
2022-08-05T16:27:32.224Z,28.65
2022-08-05T16:30:26.442Z,28.49
2022-08-05T16:32:58.137Z,28.51
2022-08-05T16:35:32.100Z,28.47
2022-08-05T16:38:15.644Z,28.28
2022-08-05T16:40:59.673Z,27.93
2022-08-05T16:43:32.899Z,27.66
2022-08-05T16:46:23.596Z,27.47
2022-08-05T16:48:52.781Z,27.23
2022-08-05T16:51:22.197Z,26.93
2022-08-05T16:54:05.864Z,26.85
2022-08-05T16:56:41.751Z,26.68
2022-08-05T16:59:14.700Z,26.51
2022-08-05T17:01:52.815Z,26.43
2022-08-05T17:04:26.431Z,26.31
2022-08-05T17:07:00.464Z,26.21
2022-08-05T17:09:57.412Z,26.15
2022-08-05T17:12:51.353Z,26.12
2022-08-05T17:15:15.506Z,26.07
2022-08-05T17:17:55.168Z,26.01
2022-08-05T17:20:31.743Z,25.84
2022-08-05T17:23:01.003Z,25.70
2022-08-05T17:25:40.355Z,25.58
2022-08-05T17:28:11.014Z,25.55
2022-08-05T17:30:51.704Z,25.45
2022-08-05T17:33:22.200Z,25.48
2022-08-05T17:36:07.717Z,25.43
2022-08-05T17:38:40.080Z,25.47
2022-08-05T17:42:16.839Z,25.50
2022-08-05T17:44:02.834Z,25.54
2022-08-05T17:46:33.583Z,25.44
2022-08-05T17:49:03.103Z,25.38
2022-08-05T17:51:40.086Z,25.31
2022-08-05T17:54:10.012Z,25.31
2022-08-05T17:56:41.264Z,25.20
2022-08-05T17:59:14.853Z,25.20
2022-08-05T18:01:50.655Z,25.11
2022-08-05T18:04:21.480Z,25.03
2022-08-05T18:07:00.275Z,25.02
2022-08-05T18:09:59.739Z,24.95
2022-08-05T18:12:24.698Z,24.94
2022-08-05T18:14:54.311Z,24.83
2022-08-05T18:17:59.644Z,24.84
2022-08-05T18:20:15.346Z,24.76
2022-08-05T18:22:54.153Z,24.77
2022-08-05T18:25:25.104Z,24.67
2022-08-05T18:27:57.461Z,24.64
2022-08-05T18:30:28.570Z,24.62
2022-08-05T18:33:01.057Z,24.67
2022-08-05T18:36:00.937Z,24.62
2022-08-05T18:38:26.065Z,24.62
2022-08-05T18:41:53.397Z,24.57
2022-08-05T18:43:48.700Z,24.51
2022-08-05T18:46:19.765Z,24.48
2022-08-05T18:48:52.267Z,24.48
2022-08-05T18:52:04.445Z,24.41
2022-08-05T18:54:24.785Z,24.36
2022-08-05T18:56:57.208Z,24.31
2022-08-05T18:59:43.129Z,24.26
2022-08-05T19:02:26.615Z,24.20
2022-08-05T19:05:02.228Z,24.21
2022-08-05T19:07:49.868Z,24.18
2022-08-05T19:10:26.433Z,24.23
2022-08-05T19:12:58.277Z,24.13
2022-08-05T19:15:58.714Z,24.10
2022-08-05T19:18:21.966Z,24.06
2022-08-05T19:20:55.522Z,24.03
2022-08-05T19:24:07.342Z,24.02
2022-08-05T19:26:16.062Z,23.92
2022-08-05T19:28:45.706Z,23.86
2022-08-05T19:31:19.494Z,23.87
2022-08-05T19:33:56.014Z,23.78
2022-08-05T19:36:29.543Z,23.80
2022-08-05T19:39:01.845Z,23.82
2022-08-05T19:41:57.995Z,23.71
2022-08-05T19:44:22.459Z,23.76
2022-08-05T19:46:55.261Z,23.66
2022-08-05T19:49:27.329Z,23.73
2022-08-05T19:52:08.546Z,23.66
2022-08-05T19:54:48.396Z,23.61
2022-08-05T19:57:18.656Z,23.54
2022-08-05T20:00:09.461Z,23.43
2022-08-05T20:02:43.579Z,23.41
2022-08-05T20:05:16.641Z,23.33
2022-08-05T20:07:57.799Z,23.29
2022-08-05T20:10:28.628Z,23.14
2022-08-05T20:12:58.116Z,23.19
2022-08-05T20:15:52.439Z,23.02
2022-08-05T20:18:32.808Z,23.11
2022-08-05T20:21:02.578Z,23.04
2022-08-05T20:23:39.357Z,23.04
2022-08-05T20:26:18.814Z,23.05
2022-08-05T20:28:50.074Z,23.05
2022-08-05T20:31:21.764Z,23.03
2022-08-05T20:33:55.049Z,23.09
2022-08-05T20:36:25.973Z,23.08
2022-08-05T20:38:57.978Z,23.05
2022-08-05T20:41:44.639Z,22.86
2022-08-05T20:44:28.999Z,22.87
2022-08-05T20:47:00.297Z,22.91
2022-08-05T20:49:37.789Z,22.88
2022-08-05T20:52:09.017Z,22.71
2022-08-05T20:54:43.188Z,22.77
2022-08-05T20:57:43.230Z,22.77
2022-08-05T21:00:35.015Z,22.74
2022-08-05T21:03:08.038Z,22.60
2022-08-05T21:05:53.771Z,22.59
2022-08-05T21:08:26.883Z,22.50
2022-08-05T21:11:10.331Z,22.48
2022-08-05T21:13:47.745Z,22.44
2022-08-05T21:16:29.358Z,22.45
2022-08-05T21:19:01.432Z,22.36
2022-08-05T21:21:39.053Z,22.44
2022-08-05T21:24:13.543Z,22.27
2022-08-05T21:26:57.873Z,22.43
2022-08-05T21:29:31.335Z,22.43
2022-08-05T21:32:04.672Z,22.40
2022-08-05T21:34:35.586Z,22.39
2022-08-05T21:37:07.727Z,22.34
2022-08-05T21:39:40.375Z,22.35
2022-08-05T21:42:41.179Z,22.35
2022-08-05T21:44:59.620Z,22.29
2022-08-05T21:47:56.897Z,22.22
2022-08-05T21:50:19.162Z,22.33
2022-08-05T21:52:53.808Z,22.28
2022-08-05T21:55:42.801Z,22.22
2022-08-05T21:58:20.406Z,22.30
2022-08-05T22:00:58.501Z,22.27
2022-08-05T22:03:52.405Z,22.25
2022-08-05T22:06:22.553Z,22.16
2022-08-05T22:08:54.806Z,22.21
2022-08-05T22:11:34.505Z,22.11
2022-08-05T22:14:33.746Z,22.04
2022-08-05T22:16:57.928Z,22.11
2022-08-05T22:20:03.149Z,22.06
2022-08-05T22:22:20.212Z,22.02
2022-08-05T22:25:20.955Z,21.99
2022-08-05T22:28:11.379Z,21.99
2022-08-05T22:30:56.109Z,21.94
2022-08-05T22:33:57.254Z,21.85
2022-08-05T22:36:16.073Z,21.85
2022-08-05T22:38:47.917Z,21.84
2022-08-05T22:42:05.143Z,21.79
2022-08-05T22:44:12.075Z,21.72
2022-08-05T22:46:41.987Z,21.72
2022-08-05T22:50:18.525Z,21.69
2022-08-05T22:52:12.535Z,21.63
2022-08-05T22:54:52.232Z,21.56
2022-08-05T22:57:24.576Z,21.55
2022-08-05T22:59:55.764Z,21.53
2022-08-05T23:02:29.450Z,21.52
2022-08-05T23:05:02.139Z,21.39
2022-08-05T23:07:44.814Z,21.47
2022-08-05T23:10:14.435Z,21.34
2022-08-05T23:12:45.873Z,21.40
2022-08-05T23:15:15.510Z,21.35
2022-08-05T23:18:00.466Z,21.29
2022-08-05T23:20:33.134Z,21.29
2022-08-05T23:23:08.332Z,21.24
2022-08-05T23:25:51.955Z,21.28
2022-08-05T23:28:28.986Z,21.21
2022-08-05T23:31:15.678Z,21.08
2022-08-05T23:34:04.254Z,21.18
2022-08-05T23:36:39.538Z,21.12
2022-08-05T23:39:17.445Z,21.23
2022-08-05T23:42:03.370Z,21.08
2022-08-05T23:44:34.716Z,21.24
2022-08-05T23:47:15.214Z,21.32
2022-08-05T23:49:45.917Z,21.21
2022-08-05T23:52:28.649Z,20.93
2022-08-05T23:55:00.039Z,21.21
2022-08-05T23:57:30.378Z,21.20
